sensor_id;sensor_type;location;lat;lon;timestamp;P1;durP1;ratioP1;P2;durP2;ratioP2
15061;SDS011;7630;50.306;8.566;2023-02-28T00:02:42;7.33;;;6.73;;
15061;SDS011;7630;50.306;8.566;2023-02-28T00:06:44;9.90;;;8.77;;
15061;SDS011;7630;50.306;8.566;2023-02-28T00:10:45;11.33;;;7.60;;
15061;SDS011;7630;50.306;8.566;2023-02-28T00:14:46;9.93;;;9.07;;
15061;SDS011;7630;50.306;8.566;2023-02-28T00:18:48;7.93;;;7.20;;
15061;SDS011;7630;50.306;8.566;2023-02-28T00:22:50;10.57;;;9.63;;
15061;SDS011;7630;50.306;8.566;2023-02-28T00:26:52;8.63;;;7.93;;
15061;SDS011;7630;50.306;8.566;2023-02-28T00:30:54;9.47;;;8.57;;
15061;SDS011;7630;50.306;8.566;2023-02-28T00:34:55;9.57;;;8.33;;
15061;SDS011;7630;50.306;8.566;2023-02-28T00:38:56;9.60;;;8.70;;
15061;SDS011;7630;50.306;8.566;2023-02-28T00:42:57;9.20;;;8.40;;
15061;SDS011;7630;50.306;8.566;2023-02-28T00:46:59;8.10;;;7.40;;
15061;SDS011;7630;50.306;8.566;2023-02-28T00:51:00;11.47;;;10.50;;
15061;SDS011;7630;50.306;8.566;2023-02-28T00:55:02;10.33;;;9.30;;
15061;SDS011;7630;50.306;8.566;2023-02-28T00:59:03;13.17;;;8.70;;
15061;SDS011;7630;50.306;8.566;2023-02-28T01:03:04;10.37;;;9.33;;
15061;SDS011;7630;50.306;8.566;2023-02-28T01:07:05;11.40;;;9.37;;
15061;SDS011;7630;50.306;8.566;2023-02-28T01:15:17;11.77;;;10.60;;
15061;SDS011;7630;50.306;8.566;2023-02-28T01:19:18;11.47;;;10.47;;
15061;SDS011;7630;50.306;8.566;2023-02-28T01:23:19;10.43;;;9.53;;
15061;SDS011;7630;50.306;8.566;2023-02-28T01:27:23;11.67;;;10.47;;
15061;SDS011;7630;50.306;8.566;2023-02-28T01:31:25;11.93;;;10.17;;
15061;SDS011;7630;50.306;8.566;2023-02-28T01:35:27;14.47;;;10.20;;
15061;SDS011;7630;50.306;8.566;2023-02-28T01:39:28;11.47;;;10.27;;
15061;SDS011;7630;50.306;8.566;2023-02-28T01:43:30;14.70;;;12.40;;
15061;SDS011;7630;50.306;8.566;2023-02-28T01:47:38;12.10;;;10.90;;
15061;SDS011;7630;50.306;8.566;2023-02-28T01:51:45;9.53;;;8.73;;
15061;SDS011;7630;50.306;8.566;2023-02-28T01:55:51;11.60;;;10.40;;
15061;SDS011;7630;50.306;8.566;2023-02-28T01:59:55;10.63;;;9.63;;
15061;SDS011;7630;50.306;8.566;2023-02-28T02:04:02;13.60;;;12.30;;
15061;SDS011;7630;50.306;8.566;2023-02-28T02:08:05;13.20;;;11.97;;
15061;SDS011;7630;50.306;8.566;2023-02-28T02:12:22;15.90;;;13.73;;
15061;SDS011;7630;50.306;8.566;2023-02-28T02:20:50;14.27;;;12.97;;
15061;SDS011;7630;50.306;8.566;2023-02-28T02:38:20;15.97;;;14.33;;
15061;SDS011;7630;50.306;8.566;2023-02-28T02:42:25;14.73;;;13.17;;
15061;SDS011;7630;50.306;8.566;2023-02-28T02:46:30;16.13;;;14.60;;
15061;SDS011;7630;50.306;8.566;2023-02-28T02:50:37;17.07;;;15.37;;
15061;SDS011;7630;50.306;8.566;2023-02-28T02:54:41;17.17;;;12.80;;
15061;SDS011;7630;50.306;8.566;2023-02-28T02:58:45;17.23;;;14.60;;
15061;SDS011;7630;50.306;8.566;2023-02-28T03:02:50;15.60;;;14.10;;
15061;SDS011;7630;50.306;8.566;2023-02-28T03:06:54;16.13;;;14.53;;
15061;SDS011;7630;50.306;8.566;2023-02-28T03:10:57;16.30;;;14.77;;
15061;SDS011;7630;50.306;8.566;2023-02-28T03:23:42;16.50;;;13.80;;
15061;SDS011;7630;50.306;8.566;2023-02-28T03:27:52;18.73;;;15.53;;
15061;SDS011;7630;50.306;8.566;2023-02-28T03:32:04;14.13;;;11.73;;
15061;SDS011;7630;50.306;8.566;2023-02-28T03:36:13;13.43;;;12.13;;
15061;SDS011;7630;50.306;8.566;2023-02-28T03:40:20;19.83;;;13.60;;
15061;SDS011;7630;50.306;8.566;2023-02-28T03:44:24;13.63;;;12.37;;
15061;SDS011;7630;50.306;8.566;2023-02-28T03:48:44;12.97;;;11.63;;
15061;SDS011;7630;50.306;8.566;2023-02-28T03:52:53;12.53;;;11.33;;
15061;SDS011;7630;50.306;8.566;2023-02-28T03:56:55;15.37;;;13.83;;
15061;SDS011;7630;50.306;8.566;2023-02-28T04:01:12;13.63;;;12.33;;
15061;SDS011;7630;50.306;8.566;2023-02-28T04:05:15;14.23;;;12.77;;
15061;SDS011;7630;50.306;8.566;2023-02-28T04:09:16;14.27;;;12.97;;
15061;SDS011;7630;50.306;8.566;2023-02-28T04:13:18;19.23;;;13.50;;
15061;SDS011;7630;50.306;8.566;2023-02-28T04:17:19;14.33;;;12.90;;
15061;SDS011;7630;50.306;8.566;2023-02-28T04:21:20;14.27;;;12.77;;
15061;SDS011;7630;50.306;8.566;2023-02-28T04:25:22;13.37;;;12.10;;
15061;SDS011;7630;50.306;8.566;2023-02-28T04:29:28;17.33;;;12.40;;
15061;SDS011;7630;50.306;8.566;2023-02-28T04:33:28;14.00;;;11.73;;
15061;SDS011;7630;50.306;8.566;2023-02-28T04:37:30;12.27;;;11.10;;
15061;SDS011;7630;50.306;8.566;2023-02-28T04:41:33;14.27;;;12.87;;
15061;SDS011;7630;50.306;8.566;2023-02-28T04:45:35;14.23;;;12.60;;
15061;SDS011;7630;50.306;8.566;2023-02-28T04:49:36;16.43;;;12.83;;
15061;SDS011;7630;50.306;8.566;2023-02-28T04:53:38;17.00;;;12.67;;
15061;SDS011;7630;50.306;8.566;2023-02-28T04:57:39;14.13;;;12.73;;
15061;SDS011;7630;50.306;8.566;2023-02-28T05:01:45;15.73;;;14.10;;
15061;SDS011;7630;50.306;8.566;2023-02-28T05:05:47;13.07;;;11.77;;
15061;SDS011;7630;50.306;8.566;2023-02-28T05:09:48;15.13;;;13.53;;
15061;SDS011;7630;50.306;8.566;2023-02-28T05:13:50;17.40;;;13.10;;
15061;SDS011;7630;50.306;8.566;2023-02-28T05:17:51;16.83;;;12.43;;
15061;SDS011;7630;50.306;8.566;2023-02-28T05:21:53;14.50;;;12.93;;
15061;SDS011;7630;50.306;8.566;2023-02-28T05:25:55;12.90;;;11.53;;
15061;SDS011;7630;50.306;8.566;2023-02-28T05:29:57;14.87;;;12.40;;
15061;SDS011;7630;50.306;8.566;2023-02-28T05:33:59;13.47;;;12.17;;
15061;SDS011;7630;50.306;8.566;2023-02-28T05:38:01;15.00;;;13.43;;
15061;SDS011;7630;50.306;8.566;2023-02-28T05:42:02;13.03;;;11.63;;
15061;SDS011;7630;50.306;8.566;2023-02-28T05:46:08;12.87;;;11.53;;
15061;SDS011;7630;50.306;8.566;2023-02-28T05:50:10;14.97;;;13.47;;
15061;SDS011;7630;50.306;8.566;2023-02-28T05:54:12;17.87;;;13.97;;
15061;SDS011;7630;50.306;8.566;2023-02-28T05:58:14;12.33;;;9.67;;
15061;SDS011;7630;50.306;8.566;2023-02-28T06:02:16;15.10;;;13.60;;
15061;SDS011;7630;50.306;8.566;2023-02-28T06:06:17;14.13;;;11.23;;
15061;SDS011;7630;50.306;8.566;2023-02-28T06:10:19;16.60;;;12.83;;
15061;SDS011;7630;50.306;8.566;2023-02-28T06:14:20;15.20;;;12.63;;
15061;SDS011;7630;50.306;8.566;2023-02-28T06:18:21;15.93;;;14.17;;
15061;SDS011;7630;50.306;8.566;2023-02-28T06:22:22;13.93;;;12.37;;
15061;SDS011;7630;50.306;8.566;2023-02-28T06:26:24;13.87;;;12.47;;
15061;SDS011;7630;50.306;8.566;2023-02-28T06:30:26;14.60;;;13.10;;
15061;SDS011;7630;50.306;8.566;2023-02-28T06:34:29;15.63;;;13.33;;
15061;SDS011;7630;50.306;8.566;2023-02-28T06:38:30;15.33;;;11.43;;
15061;SDS011;7630;50.306;8.566;2023-02-28T06:42:32;17.37;;;13.37;;
15061;SDS011;7630;50.306;8.566;2023-02-28T06:46:33;13.77;;;12.43;;
15061;SDS011;7630;50.306;8.566;2023-02-28T06:50:34;12.13;;;10.20;;
15061;SDS011;7630;50.306;8.566;2023-02-28T06:54:36;11.50;;;10.40;;
15061;SDS011;7630;50.306;8.566;2023-02-28T06:58:37;9.87;;;8.50;;
15061;SDS011;7630;50.306;8.566;2023-02-28T07:02:39;11.80;;;10.60;;
15061;SDS011;7630;50.306;8.566;2023-02-28T07:06:41;10.87;;;9.87;;
15061;SDS011;7630;50.306;8.566;2023-02-28T07:10:42;12.23;;;10.67;;
15061;SDS011;7630;50.306;8.566;2023-02-28T07:14:44;9.53;;;8.63;;
15061;SDS011;7630;50.306;8.566;2023-02-28T07:18:45;9.80;;;8.90;;
15061;SDS011;7630;50.306;8.566;2023-02-28T07:22:46;8.80;;;8.00;;
15061;SDS011;7630;50.306;8.566;2023-02-28T07:26:49;9.83;;;7.87;;
15061;SDS011;7630;50.306;8.566;2023-02-28T07:30:50;11.53;;;8.90;;
15061;SDS011;7630;50.306;8.566;2023-02-28T07:34:51;8.80;;;7.93;;
15061;SDS011;7630;50.306;8.566;2023-02-28T07:38:52;10.30;;;8.20;;
15061;SDS011;7630;50.306;8.566;2023-02-28T07:42:53;10.37;;;7.90;;
15061;SDS011;7630;50.306;8.566;2023-02-28T07:46:54;8.37;;;7.57;;
15061;SDS011;7630;50.306;8.566;2023-02-28T07:50:56;5.43;;;4.90;;
15061;SDS011;7630;50.306;8.566;2023-02-28T07:54:57;9.73;;;8.63;;
15061;SDS011;7630;50.306;8.566;2023-02-28T07:58:59;8.63;;;7.83;;
15061;SDS011;7630;50.306;8.566;2023-02-28T08:03:00;8.33;;;7.47;;
15061;SDS011;7630;50.306;8.566;2023-02-28T08:07:01;8.90;;;8.13;;
15061;SDS011;7630;50.306;8.566;2023-02-28T08:11:02;9.40;;;8.47;;
15061;SDS011;7630;50.306;8.566;2023-02-28T08:15:04;7.53;;;6.93;;
15061;SDS011;7630;50.306;8.566;2023-02-28T08:23:15;10.33;;;7.67;;
15061;SDS011;7630;50.306;8.566;2023-02-28T08:27:16;8.97;;;8.20;;
15061;SDS011;7630;50.306;8.566;2023-02-28T08:31:18;8.90;;;7.27;;
15061;SDS011;7630;50.306;8.566;2023-02-28T08:35:20;9.07;;;8.40;;
15061;SDS011;7630;50.306;8.566;2023-02-28T08:39:21;10.20;;;9.40;;
15061;SDS011;7630;50.306;8.566;2023-02-28T08:43:22;8.87;;;7.97;;
15061;SDS011;7630;50.306;8.566;2023-02-28T08:47:23;10.97;;;7.63;;
15061;SDS011;7630;50.306;8.566;2023-02-28T08:51:24;9.70;;;6.57;;
15061;SDS011;7630;50.306;8.566;2023-02-28T08:55:29;6.87;;;6.23;;
15061;SDS011;7630;50.306;8.566;2023-02-28T08:59:31;6.37;;;5.73;;
15061;SDS011;7630;50.306;8.566;2023-02-28T09:03:32;7.00;;;6.40;;
15061;SDS011;7630;50.306;8.566;2023-02-28T09:07:33;8.80;;;7.33;;
15061;SDS011;7630;50.306;8.566;2023-02-28T09:11:35;6.63;;;6.07;;
15061;SDS011;7630;50.306;8.566;2023-02-28T09:15:37;8.10;;;7.50;;
15061;SDS011;7630;50.306;8.566;2023-02-28T09:19:38;9.67;;;7.47;;
15061;SDS011;7630;50.306;8.566;2023-02-28T09:23:40;8.10;;;7.33;;
15061;SDS011;7630;50.306;8.566;2023-02-28T09:27:41;8.13;;;7.33;;
15061;SDS011;7630;50.306;8.566;2023-02-28T09:31:43;6.90;;;6.33;;
15061;SDS011;7630;50.306;8.566;2023-02-28T09:35:44;6.73;;;6.13;;
15061;SDS011;7630;50.306;8.566;2023-02-28T09:39:45;6.50;;;5.90;;
15061;SDS011;7630;50.306;8.566;2023-02-28T09:43:47;8.27;;;7.57;;
15061;SDS011;7630;50.306;8.566;2023-02-28T09:47:52;7.17;;;6.57;;
15061;SDS011;7630;50.306;8.566;2023-02-28T09:51:58;9.23;;;8.43;;
15061;SDS011;7630;50.306;8.566;2023-02-28T09:56:11;8.23;;;6.50;;
15061;SDS011;7630;50.306;8.566;2023-02-28T10:00:16;6.17;;;5.67;;
15061;SDS011;7630;50.306;8.566;2023-02-28T10:08:58;8.07;;;7.37;;
15061;SDS011;7630;50.306;8.566;2023-02-28T10:13:11;13.00;;;7.73;;
15061;SDS011;7630;50.306;8.566;2023-02-28T10:17:24;8.80;;;7.90;;
15061;SDS011;7630;50.306;8.566;2023-02-28T10:21:42;10.03;;;7.90;;
15061;SDS011;7630;50.306;8.566;2023-02-28T10:25:42;8.83;;;7.93;;
15061;SDS011;7630;50.306;8.566;2023-02-28T10:29:53;8.70;;;7.93;;
15061;SDS011;7630;50.306;8.566;2023-02-28T10:33:52;8.97;;;8.17;;
15061;SDS011;7630;50.306;8.566;2023-02-28T10:37:54;9.80;;;9.00;;
15061;SDS011;7630;50.306;8.566;2023-02-28T10:41:57;8.83;;;8.03;;
15061;SDS011;7630;50.306;8.566;2023-02-28T10:46:02;9.53;;;6.77;;
15061;SDS011;7630;50.306;8.566;2023-02-28T10:50:34;8.57;;;7.70;;
15061;SDS011;7630;50.306;8.566;2023-02-28T10:54:38;8.03;;;6.57;;
15061;SDS011;7630;50.306;8.566;2023-02-28T11:03:01;8.30;;;7.40;;
15061;SDS011;7630;50.306;8.566;2023-02-28T11:07:03;6.20;;;5.63;;
15061;SDS011;7630;50.306;8.566;2023-02-28T11:11:07;5.17;;;4.87;;
15061;SDS011;7630;50.306;8.566;2023-02-28T11:15:41;7.63;;;6.93;;
15061;SDS011;7630;50.306;8.566;2023-02-28T11:19:33;9.60;;;7.80;;
15061;SDS011;7630;50.306;8.566;2023-02-28T11:23:40;10.87;;;9.43;;
15061;SDS011;7630;50.306;8.566;2023-02-28T11:27:46;9.23;;;8.00;;
15061;SDS011;7630;50.306;8.566;2023-02-28T11:32:32;9.97;;;8.37;;
15061;SDS011;7630;50.306;8.566;2023-02-28T11:36:08;9.33;;;8.30;;
15061;SDS011;7630;50.306;8.566;2023-02-28T11:40:19;9.70;;;8.73;;
15061;SDS011;7630;50.306;8.566;2023-02-28T11:48:38;10.37;;;9.40;;
15061;SDS011;7630;50.306;8.566;2023-02-28T11:52:48;8.27;;;7.57;;
15061;SDS011;7630;50.306;8.566;2023-02-28T11:56:57;7.60;;;6.83;;
15061;SDS011;7630;50.306;8.566;2023-02-28T12:01:09;10.03;;;9.13;;
15061;SDS011;7630;50.306;8.566;2023-02-28T12:05:32;10.73;;;7.47;;
15061;SDS011;7630;50.306;8.566;2023-02-28T12:26:38;9.03;;;8.13;;
15061;SDS011;7630;50.306;8.566;2023-02-28T12:30:55;8.53;;;7.73;;
15061;SDS011;7630;50.306;8.566;2023-02-28T12:35:02;8.00;;;7.20;;
15061;SDS011;7630;50.306;8.566;2023-02-28T12:39:10;9.80;;;9.00;;
15061;SDS011;7630;50.306;8.566;2023-02-28T12:43:13;10.70;;;9.73;;
15061;SDS011;7630;50.306;8.566;2023-02-28T12:47:17;8.23;;;7.53;;
15061;SDS011;7630;50.306;8.566;2023-02-28T12:51:19;16.20;;;8.97;;
15061;SDS011;7630;50.306;8.566;2023-02-28T12:59:38;9.17;;;8.47;;
15061;SDS011;7630;50.306;8.566;2023-02-28T13:03:59;11.53;;;10.50;;
15061;SDS011;7630;50.306;8.566;2023-02-28T13:12:28;10.70;;;9.60;;
15061;SDS011;7630;50.306;8.566;2023-02-28T13:16:50;9.00;;;8.10;;
15061;SDS011;7630;50.306;8.566;2023-02-28T13:20:53;7.93;;;7.13;;
15061;SDS011;7630;50.306;8.566;2023-02-28T13:24:55;6.73;;;6.13;;
15061;SDS011;7630;50.306;8.566;2023-02-28T13:28:58;9.33;;;8.37;;
15061;SDS011;7630;50.306;8.566;2023-02-28T13:33:44;11.20;;;8.83;;
15061;SDS011;7630;50.306;8.566;2023-02-28T13:45:37;6.80;;;5.83;;
15061;SDS011;7630;50.306;8.566;2023-02-28T13:49:40;9.80;;;8.97;;
15061;SDS011;7630;50.306;8.566;2023-02-28T14:10:32;7.80;;;7.10;;
15061;SDS011;7630;50.306;8.566;2023-02-28T14:18:42;10.53;;;9.57;;
15061;SDS011;7630;50.306;8.566;2023-02-28T14:23:08;8.37;;;7.57;;
15061;SDS011;7630;50.306;8.566;2023-02-28T14:27:44;8.07;;;7.30;;
15061;SDS011;7630;50.306;8.566;2023-02-28T14:31:28;9.07;;;8.13;;
15061;SDS011;7630;50.306;8.566;2023-02-28T14:35:35;9.37;;;7.80;;
15061;SDS011;7630;50.306;8.566;2023-02-28T14:39:42;16.60;;;9.33;;
15061;SDS011;7630;50.306;8.566;2023-02-28T14:43:48;10.37;;;9.27;;
15061;SDS011;7630;50.306;8.566;2023-02-28T14:47:51;10.57;;;9.13;;
15061;SDS011;7630;50.306;8.566;2023-02-28T14:52:06;10.33;;;9.43;;
15061;SDS011;7630;50.306;8.566;2023-02-28T15:00:46;9.47;;;8.57;;
15061;SDS011;7630;50.306;8.566;2023-02-28T15:04:58;11.50;;;10.17;;
15061;SDS011;7630;50.306;8.566;2023-02-28T15:09:17;9.20;;;8.10;;
15061;SDS011;7630;50.306;8.566;2023-02-28T15:13:19;8.57;;;7.77;;
15061;SDS011;7630;50.306;8.566;2023-02-28T15:17:22;9.40;;;8.50;;
15061;SDS011;7630;50.306;8.566;2023-02-28T15:21:32;9.47;;;8.57;;
15061;SDS011;7630;50.306;8.566;2023-02-28T15:25:39;11.40;;;9.80;;
15061;SDS011;7630;50.306;8.566;2023-02-28T15:29:45;11.40;;;10.40;;
15061;SDS011;7630;50.306;8.566;2023-02-28T15:33:54;11.37;;;9.50;;
15061;SDS011;7630;50.306;8.566;2023-02-28T15:37:58;10.80;;;8.40;;
15061;SDS011;7630;50.306;8.566;2023-02-28T15:42:17;10.23;;;9.23;;
15061;SDS011;7630;50.306;8.566;2023-02-28T15:46:20;8.77;;;7.87;;
15061;SDS011;7630;50.306;8.566;2023-02-28T15:50:22;10.07;;;9.03;;
15061;SDS011;7630;50.306;8.566;2023-02-28T15:54:30;11.47;;;10.30;;
15061;SDS011;7630;50.306;8.566;2023-02-28T15:58:35;11.23;;;10.13;;
15061;SDS011;7630;50.306;8.566;2023-02-28T16:02:38;12.67;;;9.00;;
15061;SDS011;7630;50.306;8.566;2023-02-28T16:06:41;8.67;;;7.17;;
15061;SDS011;7630;50.306;8.566;2023-02-28T16:10:44;10.10;;;9.20;;
15061;SDS011;7630;50.306;8.566;2023-02-28T16:14:51;9.63;;;8.83;;
15061;SDS011;7630;50.306;8.566;2023-02-28T16:18:51;12.07;;;10.83;;
15061;SDS011;7630;50.306;8.566;2023-02-28T16:22:53;10.23;;;9.30;;
15061;SDS011;7630;50.306;8.566;2023-02-28T16:26:55;11.60;;;9.80;;
15061;SDS011;7630;50.306;8.566;2023-02-28T16:30:58;15.90;;;9.00;;
15061;SDS011;7630;50.306;8.566;2023-02-28T16:35:03;9.87;;;8.93;;
15061;SDS011;7630;50.306;8.566;2023-02-28T16:39:06;10.57;;;9.50;;
15061;SDS011;7630;50.306;8.566;2023-02-28T16:43:10;9.37;;;8.50;;
15061;SDS011;7630;50.306;8.566;2023-02-28T16:47:12;10.70;;;9.60;;
15061;SDS011;7630;50.306;8.566;2023-02-28T16:51:16;10.43;;;9.43;;
15061;SDS011;7630;50.306;8.566;2023-02-28T16:55:19;11.20;;;10.10;;
15061;SDS011;7630;50.306;8.566;2023-02-28T16:59:23;13.50;;;10.70;;
15061;SDS011;7630;50.306;8.566;2023-02-28T17:03:27;9.53;;;8.63;;
15061;SDS011;7630;50.306;8.566;2023-02-28T17:07:31;18.27;;;10.13;;
15061;SDS011;7630;50.306;8.566;2023-02-28T17:11:32;13.50;;;10.70;;
15061;SDS011;7630;50.306;8.566;2023-02-28T17:15:33;10.67;;;9.80;;
15061;SDS011;7630;50.306;8.566;2023-02-28T17:19:35;9.77;;;8.83;;
15061;SDS011;7630;50.306;8.566;2023-02-28T17:23:38;13.08;;;11.28;;
15061;SDS011;7630;50.306;8.566;2023-02-28T17:27:39;16.57;;;11.53;;
15061;SDS011;7630;50.306;8.566;2023-02-28T17:31:41;10.70;;;9.60;;
15061;SDS011;7630;50.306;8.566;2023-02-28T17:35:42;11.63;;;10.40;;
15061;SDS011;7630;50.306;8.566;2023-02-28T17:39:43;11.10;;;9.87;;
15061;SDS011;7630;50.306;8.566;2023-02-28T17:43:45;10.27;;;9.23;;
15061;SDS011;7630;50.306;8.566;2023-02-28T17:47:49;11.87;;;10.80;;
15061;SDS011;7630;50.306;8.566;2023-02-28T17:51:50;11.77;;;10.63;;
15061;SDS011;7630;50.306;8.566;2023-02-28T17:55:52;11.07;;;9.97;;
15061;SDS011;7630;50.306;8.566;2023-02-28T17:59:53;11.17;;;10.10;;
15061;SDS011;7630;50.306;8.566;2023-02-28T18:03:54;11.73;;;10.53;;
15061;SDS011;7630;50.306;8.566;2023-02-28T18:07:56;14.53;;;12.77;;
15061;SDS011;7630;50.306;8.566;2023-02-28T18:11:59;11.77;;;10.70;;
15061;SDS011;7630;50.306;8.566;2023-02-28T18:16:00;13.48;;;12.37;;
15061;SDS011;7630;50.306;8.566;2023-02-28T18:20:02;12.07;;;10.77;;
15061;SDS011;7630;50.306;8.566;2023-02-28T18:24:05;11.90;;;10.93;;
15061;SDS011;7630;50.306;8.566;2023-02-28T18:28:06;12.00;;;10.80;;
15061;SDS011;7630;50.306;8.566;2023-02-28T18:32:07;12.77;;;11.57;;
15061;SDS011;7630;50.306;8.566;2023-02-28T18:36:09;13.00;;;11.80;;
15061;SDS011;7630;50.306;8.566;2023-02-28T18:40:12;14.83;;;13.27;;
15061;SDS011;7630;50.306;8.566;2023-02-28T18:44:14;15.50;;;12.30;;
15061;SDS011;7630;50.306;8.566;2023-02-28T18:48:18;14.03;;;12.50;;
15061;SDS011;7630;50.306;8.566;2023-02-28T18:52:20;13.50;;;12.13;;
15061;SDS011;7630;50.306;8.566;2023-02-28T18:56:22;14.43;;;13.10;;
15061;SDS011;7630;50.306;8.566;2023-02-28T19:00:24;14.40;;;12.90;;
15061;SDS011;7630;50.306;8.566;2023-02-28T19:04:26;15.20;;;13.43;;
15061;SDS011;7630;50.306;8.566;2023-02-28T19:08:27;14.73;;;13.30;;
15061;SDS011;7630;50.306;8.566;2023-02-28T19:12:32;14.37;;;12.87;;
15061;SDS011;7630;50.306;8.566;2023-02-28T19:16:35;13.27;;;11.97;;
15061;SDS011;7630;50.306;8.566;2023-02-28T19:20:37;17.13;;;12.97;;
15061;SDS011;7630;50.306;8.566;2023-02-28T19:24:38;14.43;;;13.00;;
15061;SDS011;7630;50.306;8.566;2023-02-28T19:28:40;15.23;;;13.73;;
15061;SDS011;7630;50.306;8.566;2023-02-28T19:32:41;15.27;;;13.77;;
15061;SDS011;7630;50.306;8.566;2023-02-28T19:36:43;16.23;;;14.63;;
15061;SDS011;7630;50.306;8.566;2023-02-28T19:40:44;15.53;;;13.90;;
15061;SDS011;7630;50.306;8.566;2023-02-28T19:44:46;14.73;;;13.33;;
15061;SDS011;7630;50.306;8.566;2023-02-28T19:48:47;21.17;;;15.67;;
15061;SDS011;7630;50.306;8.566;2023-02-28T19:52:48;15.00;;;13.70;;
15061;SDS011;7630;50.306;8.566;2023-02-28T19:56:50;16.50;;;15.00;;
15061;SDS011;7630;50.306;8.566;2023-02-28T20:00:54;18.47;;;14.53;;
15061;SDS011;7630;50.306;8.566;2023-02-28T20:04:55;16.80;;;15.00;;
15061;SDS011;7630;50.306;8.566;2023-02-28T20:08:59;14.93;;;13.43;;
15061;SDS011;7630;50.306;8.566;2023-02-28T20:13:00;17.57;;;15.90;;
15061;SDS011;7630;50.306;8.566;2023-02-28T20:17:02;19.27;;;16.53;;
15061;SDS011;7630;50.306;8.566;2023-02-28T20:21:10;18.33;;;16.40;;
15061;SDS011;7630;50.306;8.566;2023-02-28T20:25:12;18.80;;;15.70;;
15061;SDS011;7630;50.306;8.566;2023-02-28T20:29:14;18.40;;;16.70;;
15061;SDS011;7630;50.306;8.566;2023-02-28T20:33:15;19.67;;;17.83;;
15061;SDS011;7630;50.306;8.566;2023-02-28T20:37:17;18.13;;;16.23;;
15061;SDS011;7630;50.306;8.566;2023-02-28T20:41:19;18.20;;;16.07;;
15061;SDS011;7630;50.306;8.566;2023-02-28T20:45:21;18.07;;;15.50;;
15061;SDS011;7630;50.306;8.566;2023-02-28T20:49:24;19.40;;;17.63;;
15061;SDS011;7630;50.306;8.566;2023-02-28T20:53:26;18.87;;;16.93;;
15061;SDS011;7630;50.306;8.566;2023-02-28T20:57:28;18.57;;;16.77;;
15061;SDS011;7630;50.306;8.566;2023-02-28T21:01:30;21.77;;;19.53;;
15061;SDS011;7630;50.306;8.566;2023-02-28T21:05:31;22.03;;;19.90;;
15061;SDS011;7630;50.306;8.566;2023-02-28T21:09:32;21.53;;;19.33;;
15061;SDS011;7630;50.306;8.566;2023-02-28T21:13:34;22.53;;;20.37;;
15061;SDS011;7630;50.306;8.566;2023-02-28T21:17:36;24.23;;;19.27;;
15061;SDS011;7630;50.306;8.566;2023-02-28T21:21:38;21.83;;;19.77;;
15061;SDS011;7630;50.306;8.566;2023-02-28T21:25:42;21.60;;;18.83;;
15061;SDS011;7630;50.306;8.566;2023-02-28T21:29:44;20.83;;;18.60;;
15061;SDS011;7630;50.306;8.566;2023-02-28T21:33:45;19.77;;;17.90;;
15061;SDS011;7630;50.306;8.566;2023-02-28T21:37:47;21.43;;;19.00;;
15061;SDS011;7630;50.306;8.566;2023-02-28T21:41:48;19.17;;;17.20;;
15061;SDS011;7630;50.306;8.566;2023-02-28T21:45:49;24.83;;;18.77;;
15061;SDS011;7630;50.306;8.566;2023-02-28T21:49:50;21.33;;;19.03;;
15061;SDS011;7630;50.306;8.566;2023-02-28T21:53:52;23.40;;;19.10;;
15061;SDS011;7630;50.306;8.566;2023-02-28T21:57:53;22.33;;;19.47;;
15061;SDS011;7630;50.306;8.566;2023-02-28T22:01:54;22.67;;;19.50;;
15061;SDS011;7630;50.306;8.566;2023-02-28T22:05:56;24.63;;;20.03;;
15061;SDS011;7630;50.306;8.566;2023-02-28T22:09:57;22.40;;;20.03;;
15061;SDS011;7630;50.306;8.566;2023-02-28T22:13:58;22.83;;;19.40;;
15061;SDS011;7630;50.306;8.566;2023-02-28T22:17:59;25.00;;;18.87;;
15061;SDS011;7630;50.306;8.566;2023-02-28T22:22:00;22.47;;;20.13;;
15061;SDS011;7630;50.306;8.566;2023-02-28T22:26:02;22.47;;;19.50;;
15061;SDS011;7630;50.306;8.566;2023-02-28T22:30:05;21.47;;;19.17;;
15061;SDS011;7630;50.306;8.566;2023-02-28T22:34:07;25.17;;;22.13;;
15061;SDS011;7630;50.306;8.566;2023-02-28T22:38:10;24.13;;;21.27;;
15061;SDS011;7630;50.306;8.566;2023-02-28T22:42:12;24.70;;;21.33;;
15061;SDS011;7630;50.306;8.566;2023-02-28T22:46:13;22.50;;;20.30;;
15061;SDS011;7630;50.306;8.566;2023-02-28T22:50:14;24.70;;;21.73;;
15061;SDS011;7630;50.306;8.566;2023-02-28T22:54:16;28.23;;;20.87;;
15061;SDS011;7630;50.306;8.566;2023-02-28T22:58:17;25.43;;;22.73;;
15061;SDS011;7630;50.306;8.566;2023-02-28T23:02:19;26.73;;;21.97;;
15061;SDS011;7630;50.306;8.566;2023-02-28T23:06:28;26.60;;;20.70;;
15061;SDS011;7630;50.306;8.566;2023-02-28T23:10:31;24.60;;;21.77;;
15061;SDS011;7630;50.306;8.566;2023-02-28T23:14:32;24.00;;;20.83;;
15061;SDS011;7630;50.306;8.566;2023-02-28T23:18:33;24.13;;;21.13;;
15061;SDS011;7630;50.306;8.566;2023-02-28T23:22:34;27.30;;;20.37;;
15061;SDS011;7630;50.306;8.566;2023-02-28T23:26:40;24.10;;;20.47;;
15061;SDS011;7630;50.306;8.566;2023-02-28T23:30:43;24.23;;;21.17;;
15061;SDS011;7630;50.306;8.566;2023-02-28T23:34:44;23.67;;;19.57;;
15061;SDS011;7630;50.306;8.566;2023-02-28T23:38:46;23.67;;;19.93;;
15061;SDS011;7630;50.306;8.566;2023-02-28T23:42:48;25.07;;;22.33;;
15061;SDS011;7630;50.306;8.566;2023-02-28T23:46:51;30.03;;;23.77;;
15061;SDS011;7630;50.306;8.566;2023-02-28T23:50:52;23.67;;;20.87;;
15061;SDS011;7630;50.306;8.566;2023-02-28T23:54:55;23.97;;;21.50;;
15061;SDS011;7630;50.306;8.566;2023-02-28T23:58:56;27.13;;;22.63;;
